createdAt,value
2023-03-10T00:00:54.695Z,99080.13
2023-03-10T00:03:22.641Z,99087.28
2023-03-10T00:05:50.625Z,99081.41
2023-03-10T00:08:18.629Z,99082.34
2023-03-10T00:10:47.995Z,99085.28
2023-03-10T00:13:15.918Z,99087.88
2023-03-10T00:15:45.260Z,99084.50
2023-03-10T00:18:13.243Z,99093.78
2023-03-10T00:20:41.295Z,99092.59
2023-03-10T00:23:09.740Z,99089.41
2023-03-10T00:25:37.829Z,99092.50
2023-03-10T00:28:08.871Z,99095.66
2023-03-10T00:30:36.806Z,99101.66
2023-03-10T00:33:06.152Z,99115.84
2023-03-10T00:35:34.131Z,99122.56
2023-03-10T00:38:02.690Z,99132.06
2023-03-10T00:40:30.822Z,99122.41
2023-03-10T00:42:59.572Z,99120.72
2023-03-10T00:45:27.533Z,99124.16
2023-03-10T00:47:55.509Z,99132.31
2023-03-10T00:50:24.787Z,99126.44
2023-03-10T00:52:52.689Z,99126.56
2023-03-10T00:55:20.675Z,99137.63
2023-03-10T00:57:48.773Z,99128.22
2023-03-10T01:00:18.220Z,99130.72
2023-03-10T01:02:46.345Z,99133.94
2023-03-10T01:05:15.892Z,99145.56
2023-03-10T01:07:45.203Z,99147.91
2023-03-10T01:10:14.331Z,99140.69
2023-03-10T01:12:42.347Z,99139.84
2023-03-10T01:15:13.156Z,99142.31
2023-03-10T01:17:41.139Z,99143.91
2023-03-10T01:20:15.126Z,99145.94
2023-03-10T01:22:43.294Z,99130.19
2023-03-10T01:25:15.695Z,99122.16
2023-03-10T01:27:44.308Z,99110.25
2023-03-10T01:30:13.552Z,99108.75
2023-03-10T01:32:41.907Z,99112.66
2023-03-10T01:35:11.142Z,99122.16
2023-03-10T01:37:39.133Z,99122.66
2023-03-10T01:40:08.834Z,99116.09
2023-03-10T01:42:38.313Z,99122.66
2023-03-10T01:45:11.789Z,99113.84
2023-03-10T01:47:39.750Z,99115.75
2023-03-10T01:50:13.837Z,99112.72
2023-03-10T01:52:44.670Z,99123.66
2023-03-10T01:55:16.573Z,99115.66
2023-03-10T01:57:49.038Z,99118.53
2023-03-10T02:00:18.152Z,99128.44
2023-03-10T02:02:54.168Z,99145.09
2023-03-10T02:05:23.074Z,99164.19
2023-03-10T02:07:51.940Z,99174.22
2023-03-10T02:10:20.154Z,99172.03
2023-03-10T02:12:49.458Z,99179.75
2023-03-10T02:15:17.444Z,99171.03
2023-03-10T02:17:45.974Z,99174.47
2023-03-10T02:20:25.215Z,99156.03
2023-03-10T02:22:53.661Z,99143.41
2023-03-10T02:25:30.492Z,99133.28
2023-03-10T02:28:00.291Z,99128.19
2023-03-10T02:30:33.080Z,99142.38
2023-03-10T02:33:05.669Z,99144.03
2023-03-10T02:35:33.664Z,99139.72
2023-03-10T02:38:01.692Z,99141.50
2023-03-10T02:40:37.704Z,99145.69
2023-03-10T02:43:12.709Z,99152.09
2023-03-10T02:45:43.939Z,99158.19
2023-03-10T02:48:14.399Z,99169.25
2023-03-10T02:50:45.565Z,99182.56
2023-03-10T02:53:16.955Z,99178.16
2023-03-10T02:55:45.448Z,99180.00
2023-03-10T02:58:14.908Z,99164.31
2023-03-10T03:00:45.648Z,99168.91
2023-03-10T03:03:15.679Z,99195.69
2023-03-10T03:05:43.894Z,99185.31
2023-03-10T03:08:12.352Z,99203.25
2023-03-10T03:10:40.830Z,99204.69
2023-03-10T03:13:09.702Z,99206.16
2023-03-10T03:15:41.788Z,99185.53
2023-03-10T03:18:10.200Z,99200.34
2023-03-10T03:20:40.988Z,99209.81
2023-03-10T03:23:09.308Z,99188.59
2023-03-10T03:25:40.199Z,99201.78
2023-03-10T03:28:10.011Z,99207.97
2023-03-10T03:30:38.329Z,99230.88
2023-03-10T03:33:08.945Z,99208.91
2023-03-10T03:35:38.663Z,99243.22
2023-03-10T03:38:08.533Z,99237.38
2023-03-10T03:40:37.811Z,99243.28
2023-03-10T03:43:06.364Z,99242.28
2023-03-10T03:45:34.717Z,99257.91
2023-03-10T03:48:02.773Z,99277.53
2023-03-10T03:50:32.219Z,99265.09
2023-03-10T03:53:00.324Z,99282.53
2023-03-10T03:55:29.014Z,99288.84
2023-03-10T03:57:57.062Z,99278.59
2023-03-10T04:00:26.107Z,99280.53
2023-03-10T04:02:54.064Z,99273.91
2023-03-10T04:05:21.993Z,99306.44
2023-03-10T04:07:51.439Z,99319.72
2023-03-10T04:10:21.466Z,99313.00
2023-03-10T04:12:49.483Z,99304.94
2023-03-10T04:15:17.491Z,99325.44
2023-03-10T04:17:45.525Z,99321.78
2023-03-10T04:20:14.398Z,99326.13
2023-03-10T04:22:42.689Z,99328.88
2023-03-10T04:25:12.611Z,99332.22
2023-03-10T04:27:40.516Z,99333.41
2023-03-10T04:30:09.926Z,99343.56
2023-03-10T04:32:38.089Z,99351.28
2023-03-10T04:35:07.976Z,99360.31
2023-03-10T04:37:35.952Z,99364.09
2023-03-10T04:40:08.487Z,99373.75
2023-03-10T04:42:38.127Z,99377.44
2023-03-10T04:45:07.169Z,99391.50
2023-03-10T04:47:35.293Z,99387.09
2023-03-10T04:50:03.325Z,99389.59
2023-03-10T04:52:34.432Z,99407.03
2023-03-10T04:55:02.483Z,99410.53
2023-03-10T04:57:30.473Z,99405.19
2023-03-10T05:00:02.615Z,99412.91
2023-03-10T05:02:32.997Z,99423.25
2023-03-10T05:05:01.584Z,99422.78
2023-03-10T05:07:29.829Z,99423.66
2023-03-10T05:09:57.832Z,99421.63
2023-03-10T05:12:25.754Z,99438.00
2023-03-10T05:14:53.643Z,99442.69
2023-03-10T05:17:23.014Z,99427.28
2023-03-10T05:19:50.960Z,99434.16
2023-03-10T05:22:18.879Z,99429.47
2023-03-10T05:24:48.110Z,99457.69
2023-03-10T05:27:18.482Z,99451.19
2023-03-10T05:29:46.787Z,99463.88
2023-03-10T05:32:14.938Z,99454.03
2023-03-10T05:34:44.398Z,99456.34
2023-03-10T05:37:12.412Z,99485.22
2023-03-10T05:39:40.378Z,99486.13
2023-03-10T05:42:08.548Z,99476.75
2023-03-10T05:44:36.525Z,99491.47
2023-03-10T05:47:04.663Z,99481.38
2023-03-10T05:49:33.170Z,99496.16
2023-03-10T05:52:05.410Z,99493.47
2023-03-10T05:54:33.437Z,99500.00
2023-03-10T05:57:01.517Z,99495.78
2023-03-10T05:59:29.673Z,99503.44
2023-03-10T06:01:57.604Z,99510.78
2023-03-10T06:04:25.687Z,99503.44
2023-03-10T06:06:56.048Z,99497.41
2023-03-10T06:09:25.413Z,99515.81
2023-03-10T06:11:53.501Z,99537.72
2023-03-10T06:14:21.476Z,99525.34
2023-03-10T06:16:51.721Z,99520.47
2023-03-10T06:19:20.051Z,99510.41
2023-03-10T06:21:48.031Z,99524.13
2023-03-10T06:24:16.123Z,99529.69
2023-03-10T06:26:45.488Z,99533.53
2023-03-10T06:29:13.419Z,99535.63
2023-03-10T06:31:41.373Z,99537.47
2023-03-10T06:34:09.363Z,99548.16
2023-03-10T06:36:40.464Z,99530.00
2023-03-10T06:39:08.990Z,99532.94
2023-03-10T06:41:37.588Z,99530.78
2023-03-10T06:44:06.991Z,99534.53
2023-03-10T06:46:35.618Z,99554.28
2023-03-10T06:49:03.596Z,99565.00
2023-03-10T06:51:31.604Z,99560.28
2023-03-10T06:53:59.636Z,99562.13
2023-03-10T06:56:27.655Z,99556.94
2023-03-10T06:58:55.736Z,99564.97
2023-03-10T07:01:28.061Z,99569.69
2023-03-10T07:03:56.546Z,99574.38
2023-03-10T07:06:25.356Z,99587.09
2023-03-10T07:08:54.660Z,99579.72
2023-03-10T07:11:23.657Z,99590.97
2023-03-10T07:13:51.740Z,99603.16
2023-03-10T07:16:20.523Z,99623.88
2023-03-10T07:18:50.385Z,99630.25
2023-03-10T07:21:20.064Z,99635.09
2023-03-10T07:23:48.241Z,99636.59
2023-03-10T07:26:18.849Z,99644.63
2023-03-10T07:28:46.991Z,99644.13
2023-03-10T07:31:15.980Z,99670.72
2023-03-10T07:33:44.317Z,99667.53
2023-03-10T07:36:17.255Z,99672.38
2023-03-10T07:38:45.469Z,99680.09
2023-03-10T07:41:16.620Z,99683.06
2023-03-10T07:43:44.952Z,99680.25
2023-03-10T07:46:15.571Z,99700.16
2023-03-10T07:48:44.135Z,99711.88
2023-03-10T07:51:13.667Z,99697.81
2023-03-10T07:53:41.670Z,99711.88
2023-03-10T07:56:11.223Z,99692.59
2023-03-10T07:58:39.725Z,99714.56
2023-03-10T08:01:09.480Z,99723.53
2023-03-10T08:03:40.898Z,99723.19
2023-03-10T08:06:09.030Z,99724.25
2023-03-10T08:08:38.483Z,99723.16
2023-03-10T08:11:10.571Z,99716.19
2023-03-10T08:13:39.248Z,99723.28
2023-03-10T08:16:08.345Z,99727.06
2023-03-10T08:18:36.716Z,99736.06
2023-03-10T08:21:05.800Z,99714.56
2023-03-10T08:23:35.534Z,99719.91
2023-03-10T08:26:07.260Z,99732.84
2023-03-10T08:28:38.850Z,99734.28
2023-03-10T08:31:11.456Z,99745.13
2023-03-10T08:33:40.133Z,99728.16
2023-03-10T08:36:10.184Z,99738.25
2023-03-10T08:38:38.594Z,99740.28
2023-03-10T08:41:15.197Z,99731.72
2023-03-10T08:43:44.028Z,99719.34
2023-03-10T08:46:13.538Z,99748.94
2023-03-10T08:48:43.044Z,99764.88
2023-03-10T08:51:14.449Z,99774.31
2023-03-10T08:53:44.565Z,99788.88
2023-03-10T08:56:14.626Z,99783.47
2023-03-10T08:58:42.955Z,99799.16
2023-03-10T09:01:14.365Z,99806.75
2023-03-10T09:03:44.554Z,99803.97
2023-03-10T09:06:16.195Z,99811.28
2023-03-10T09:08:44.391Z,99800.16
2023-03-10T09:11:17.686Z,99813.38
2023-03-10T09:13:45.707Z,99811.91
2023-03-10T09:16:14.734Z,99825.66
2023-03-10T09:18:43.068Z,99832.84
2023-03-10T09:21:13.600Z,99826.72
2023-03-10T09:23:43.341Z,99823.00
2023-03-10T09:26:13.005Z,99819.53
2023-03-10T09:28:41.045Z,99818.56
2023-03-10T09:31:10.488Z,99815.69
2023-03-10T09:33:39.301Z,99824.75
2023-03-10T09:36:08.692Z,99808.28
2023-03-10T09:38:37.403Z,99811.56
2023-03-10T09:41:18.976Z,99817.66
2023-03-10T09:43:54.358Z,99815.50
2023-03-10T09:46:28.055Z,99836.13
2023-03-10T09:49:06.062Z,99845.63
2023-03-10T09:51:34.496Z,99853.75
2023-03-10T09:54:18.059Z,99867.72
2023-03-10T09:56:47.680Z,99864.03
2023-03-10T09:59:18.472Z,99858.88
2023-03-10T10:01:50.292Z,99862.19
2023-03-10T10:04:22.824Z,99869.13
2023-03-10T10:06:55.547Z,99880.50
2023-03-10T10:09:30.067Z,99881.72
2023-03-10T10:12:00.842Z,99886.25
2023-03-10T10:14:31.452Z,99886.25
2023-03-10T10:17:08.407Z,99891.13
2023-03-10T10:19:39.523Z,99897.03
2023-03-10T10:22:13.498Z,99896.41
2023-03-10T10:24:41.751Z,99900.06
2023-03-10T10:27:11.091Z,99907.13
2023-03-10T10:29:42.443Z,99890.69
2023-03-10T10:32:13.087Z,99900.75
2023-03-10T10:34:42.669Z,99915.31
2023-03-10T10:37:29.843Z,99900.38
2023-03-10T10:39:59.672Z,99896.03
2023-03-10T10:42:34.241Z,99888.38
2023-03-10T10:45:04.742Z,99887.34
2023-03-10T10:47:34.410Z,99878.97
2023-03-10T10:50:19.466Z,99879.56
2023-03-10T10:52:49.951Z,99880.22
2023-03-10T10:55:28.420Z,99884.28
2023-03-10T10:58:01.720Z,99882.88
2023-03-10T11:00:32.430Z,99877.63
2023-03-10T11:03:00.870Z,99886.06
2023-03-10T11:05:34.448Z,99886.97
2023-03-10T11:08:18.193Z,99889.97
2023-03-10T11:10:54.575Z,99879.84
2023-03-10T11:13:30.471Z,99899.66
2023-03-10T11:16:07.972Z,99894.84
2023-03-10T11:18:40.330Z,99879.16
2023-03-10T11:21:15.021Z,99880.69
2023-03-10T11:23:51.231Z,99879.25
2023-03-10T11:26:33.720Z,99879.97
2023-03-10T11:29:10.921Z,99884.63
2023-03-10T11:31:45.583Z,99890.56
2023-03-10T11:34:20.591Z,99886.13
2023-03-10T11:36:57.384Z,99895.88
2023-03-10T11:39:36.923Z,99886.97
2023-03-10T11:42:12.835Z,99891.38
2023-03-10T11:44:48.696Z,99897.19
2023-03-10T11:47:25.842Z,99899.41
2023-03-10T11:50:04.254Z,99905.06
2023-03-10T11:52:34.270Z,99909.81
2023-03-10T11:55:06.811Z,99905.25
2023-03-10T11:57:41.117Z,99910.03
2023-03-10T12:00:23.768Z,99908.84
2023-03-10T12:03:07.005Z,99910.78
2023-03-10T12:05:45.343Z,99904.41
2023-03-10T12:08:15.102Z,99885.91
2023-03-10T12:10:43.484Z,99892.34
2023-03-10T12:13:22.631Z,99894.31
2023-03-10T12:15:55.929Z,99870.59
2023-03-10T12:18:26.769Z,99879.69
2023-03-10T12:21:16.710Z,99875.88
2023-03-10T12:23:46.178Z,99865.75
2023-03-10T12:26:14.361Z,99869.09
2023-03-10T12:28:45.457Z,99876.38
2023-03-10T12:31:46.041Z,99863.72
2023-03-10T12:34:15.383Z,99859.72
2023-03-10T12:36:46.446Z,99854.84
2023-03-10T12:39:33.010Z,99857.09
2023-03-10T12:42:02.548Z,99856.56
2023-03-10T12:44:49.018Z,99845.34
2023-03-10T12:47:29.821Z,99843.25
2023-03-10T12:50:04.258Z,99836.50
2023-03-10T12:52:40.200Z,99841.25
2023-03-10T12:55:24.323Z,99836.69
2023-03-10T12:58:11.846Z,99839.78
2023-03-10T13:00:46.237Z,99830.56
2023-03-10T13:03:26.073Z,99834.66
2023-03-10T13:06:04.158Z,99832.34
2023-03-10T13:08:42.633Z,99838.94
2023-03-10T13:11:25.396Z,99827.97
2023-03-10T13:13:57.536Z,99827.44
2023-03-10T13:16:25.827Z,99823.06
2023-03-10T13:18:55.660Z,99808.63
2023-03-10T13:21:26.618Z,99810.38
2023-03-10T13:23:54.948Z,99808.47
2023-03-10T13:26:24.385Z,99808.78
2023-03-10T13:28:53.743Z,99814.81
2023-03-10T13:31:25.112Z,99797.34
2023-03-10T13:33:55.902Z,99792.97
2023-03-10T13:36:32.974Z,99802.47
2023-03-10T13:39:02.739Z,99803.78
2023-03-10T13:41:37.247Z,99803.38
2023-03-10T13:44:05.350Z,99795.13
2023-03-10T13:46:35.128Z,99802.03
2023-03-10T13:49:09.080Z,99793.78
2023-03-10T13:51:38.436Z,99806.38
2023-03-10T13:54:20.437Z,99798.19
2023-03-10T13:56:49.864Z,99795.38
2023-03-10T13:59:22.756Z,99792.63
2023-03-10T14:01:53.754Z,99786.75
2023-03-10T14:04:42.159Z,99787.91
2023-03-10T14:07:11.620Z,99783.69
2023-03-10T14:09:39.678Z,99790.53
2023-03-10T14:12:08.422Z,99787.59
2023-03-10T14:14:38.788Z,99793.72
2023-03-10T14:17:08.245Z,99795.31
2023-03-10T14:19:51.353Z,99787.69
2023-03-10T14:22:29.566Z,99782.19
2023-03-10T14:24:57.946Z,99777.78
2023-03-10T14:27:26.928Z,99772.66
2023-03-10T14:29:56.822Z,99785.03
2023-03-10T14:32:25.835Z,99767.38
2023-03-10T14:34:55.247Z,99763.75
2023-03-10T14:37:24.009Z,99762.09
2023-03-10T14:39:52.142Z,99755.22
2023-03-10T14:42:23.558Z,99756.22
2023-03-10T14:44:52.010Z,99746.44
2023-03-10T14:47:20.371Z,99757.78
2023-03-10T14:49:48.517Z,99749.53
2023-03-10T14:52:20.405Z,99744.16
2023-03-10T14:54:48.477Z,99737.06
2023-03-10T14:57:22.347Z,99739.81
2023-03-10T14:59:52.657Z,99738.50
2023-03-10T15:02:23.518Z,99733.03
2023-03-10T15:04:51.572Z,99733.75
2023-03-10T15:07:21.011Z,99732.63
2023-03-10T15:09:50.917Z,99727.50
2023-03-10T15:12:22.636Z,99732.22
2023-03-10T15:14:53.647Z,99717.06
2023-03-10T15:17:21.815Z,99710.97
2023-03-10T15:19:49.901Z,99705.00
2023-03-10T15:22:17.880Z,99704.75
2023-03-10T15:24:47.347Z,99701.94
2023-03-10T15:27:15.651Z,99680.22
2023-03-10T15:29:43.604Z,99680.34
2023-03-10T15:32:11.709Z,99672.34
2023-03-10T15:34:39.772Z,99662.56
2023-03-10T15:37:08.736Z,99656.53
2023-03-10T15:39:37.370Z,99643.03
2023-03-10T15:42:07.223Z,99649.69
2023-03-10T15:44:35.150Z,99645.94
2023-03-10T15:47:03.315Z,99643.84
2023-03-10T15:49:33.849Z,99639.69
2023-03-10T15:52:01.773Z,99643.22
2023-03-10T15:54:29.729Z,99634.91
2023-03-10T15:56:57.682Z,99627.63
2023-03-10T15:59:27.763Z,99633.44
2023-03-10T16:01:55.844Z,99625.97
2023-03-10T16:04:24.825Z,99613.91
2023-03-10T16:06:53.186Z,99627.84
2023-03-10T16:09:21.155Z,99628.47
2023-03-10T16:11:49.143Z,99617.44
2023-03-10T16:14:17.159Z,99621.19
2023-03-10T16:16:46.506Z,99613.06
2023-03-10T16:19:14.495Z,99612.66
2023-03-10T16:21:42.493Z,99613.69
2023-03-10T16:24:10.521Z,99611.00
2023-03-10T16:26:39.574Z,99601.88
2023-03-10T16:29:07.737Z,99605.19
2023-03-10T16:31:35.898Z,99621.38
2023-03-10T16:34:05.775Z,99618.06
2023-03-10T16:36:36.634Z,99605.13
2023-03-10T16:39:07.897Z,99617.56
2023-03-10T16:41:35.878Z,99621.72
2023-03-10T16:44:05.885Z,99617.53
2023-03-10T16:46:34.442Z,99611.66
2023-03-10T16:49:03.103Z,99611.22
2023-03-10T16:51:38.071Z,99623.94
2023-03-10T16:54:08.466Z,99631.34
2023-03-10T16:56:38.522Z,99623.88
2023-03-10T16:59:06.751Z,99604.19
2023-03-10T17:01:35.038Z,99580.59
2023-03-10T17:04:03.112Z,99577.47
2023-03-10T17:06:33.651Z,99584.97
2023-03-10T17:09:04.503Z,99588.31
2023-03-10T17:11:34.672Z,99592.66
2023-03-10T17:14:04.303Z,99574.78
2023-03-10T17:16:34.588Z,99583.91
2023-03-10T17:19:05.253Z,99587.88
2023-03-10T17:21:36.089Z,99580.84
2023-03-10T17:24:06.628Z,99574.00
2023-03-10T17:26:34.812Z,99576.44
2023-03-10T17:29:04.641Z,99572.50
2023-03-10T17:31:33.434Z,99563.25
2023-03-10T17:34:07.105Z,99557.88
2023-03-10T17:36:35.778Z,99519.75
2023-03-10T17:39:06.392Z,99508.63
2023-03-10T17:41:36.583Z,99510.50
2023-03-10T17:44:05.580Z,99520.88
2023-03-10T17:46:33.772Z,99521.28
2023-03-10T17:49:01.791Z,99521.69
2023-03-10T17:51:31.601Z,99523.38
2023-03-10T17:54:01.740Z,99528.13
2023-03-10T17:56:31.313Z,99520.03
2023-03-10T17:58:59.685Z,99520.03
2023-03-10T18:01:29.261Z,99521.31
2023-03-10T18:03:58.584Z,99518.59
2023-03-10T18:06:28.927Z,99515.91
2023-03-10T18:08:58.360Z,99515.69
2023-03-10T18:11:27.285Z,99500.19
2023-03-10T18:13:56.605Z,99491.06
2023-03-10T18:16:26.625Z,99488.59
2023-03-10T18:18:55.819Z,99486.47
2023-03-10T18:21:24.391Z,99479.47
2023-03-10T18:23:53.713Z,99462.81
2023-03-10T18:26:24.740Z,99454.59
2023-03-10T18:28:52.840Z,99467.00
2023-03-10T18:31:24.150Z,99457.50
2023-03-10T18:33:52.352Z,99458.69
2023-03-10T18:36:23.293Z,99454.06
2023-03-10T18:38:52.420Z,99467.50
2023-03-10T18:41:21.464Z,99459.09
2023-03-10T18:43:52.439Z,99459.97
2023-03-10T18:46:22.565Z,99458.16
2023-03-10T18:48:56.016Z,99449.81
2023-03-10T18:51:25.259Z,99451.59
2023-03-10T18:53:53.553Z,99449.25
2023-03-10T18:56:21.576Z,99448.34
2023-03-10T18:58:49.636Z,99436.19
2023-03-10T19:01:17.650Z,99444.03
2023-03-10T19:03:46.958Z,99446.31
2023-03-10T19:06:14.916Z,99445.09
2023-03-10T19:08:42.888Z,99434.06
2023-03-10T19:11:11.290Z,99437.44
2023-03-10T19:13:40.610Z,99413.16
2023-03-10T19:16:09.960Z,99416.88
2023-03-10T19:18:38.127Z,99417.31
2023-03-10T19:21:09.629Z,99419.19
2023-03-10T19:23:37.874Z,99420.22
2023-03-10T19:26:09.012Z,99419.22
2023-03-10T19:28:37.914Z,99423.81
2023-03-10T19:31:10.445Z,99414.88
2023-03-10T19:33:39.940Z,99399.53
2023-03-10T19:36:12.649Z,99402.03
2023-03-10T19:38:41.540Z,99407.41
2023-03-10T19:41:14.072Z,99417.78
2023-03-10T19:43:43.809Z,99413.22
2023-03-10T19:46:13.905Z,99414.88
2023-03-10T19:48:42.639Z,99411.13
2023-03-10T19:51:20.975Z,99411.91
2023-03-10T19:53:49.310Z,99419.44
2023-03-10T19:56:19.372Z,99426.44
2023-03-10T19:58:48.175Z,99425.81
2023-03-10T20:01:17.165Z,99421.88
2023-03-10T20:03:45.202Z,99431.00
2023-03-10T20:06:14.653Z,99441.38
2023-03-10T20:08:42.651Z,99427.66
2023-03-10T20:11:13.586Z,99425.97
2023-03-10T20:13:42.661Z,99417.25
2023-03-10T20:16:12.636Z,99433.69
2023-03-10T20:18:40.921Z,99442.19
2023-03-10T20:21:11.358Z,99415.75
2023-03-10T20:23:40.735Z,99415.97
2023-03-10T20:26:10.898Z,99413.22
2023-03-10T20:28:40.050Z,99413.22
2023-03-10T20:31:08.097Z,99422.53
2023-03-10T20:33:36.571Z,99438.78
2023-03-10T20:36:05.599Z,99432.19
2023-03-10T20:38:36.459Z,99444.44
2023-03-10T20:41:06.100Z,99446.47
2023-03-10T20:43:34.117Z,99452.06
2023-03-10T20:46:02.314Z,99461.59
2023-03-10T20:48:30.418Z,99491.41
2023-03-10T20:50:59.157Z,99501.16
2023-03-10T20:53:27.192Z,99504.06
2023-03-10T20:55:55.357Z,99511.75
2023-03-10T20:58:24.718Z,99520.69
2023-03-10T21:00:52.850Z,99523.25
2023-03-10T21:03:21.740Z,99522.34
2023-03-10T21:05:49.845Z,99525.22
2023-03-10T21:08:17.885Z,99528.00
2023-03-10T21:10:48.179Z,99518.41
2023-03-10T21:13:17.352Z,99519.81
2023-03-10T21:15:46.722Z,99533.44
2023-03-10T21:18:17.746Z,99537.28
2023-03-10T21:20:45.716Z,99541.78
2023-03-10T21:23:13.847Z,99537.28
2023-03-10T21:25:42.230Z,99550.59
2023-03-10T21:28:10.997Z,99555.38
2023-03-10T21:30:39.095Z,99547.88
2023-03-10T21:33:08.547Z,99543.97
2023-03-10T21:35:38.685Z,99540.22
2023-03-10T21:38:06.764Z,99555.59
2023-03-10T21:40:34.883Z,99557.16
2023-03-10T21:43:05.812Z,99558.63
2023-03-10T21:45:37.401Z,99555.09
2023-03-10T21:48:06.377Z,99556.75
2023-03-10T21:50:35.770Z,99542.75
2023-03-10T21:53:05.073Z,99565.22
2023-03-10T21:55:34.561Z,99553.59
2023-03-10T21:58:03.120Z,99554.81
2023-03-10T22:00:31.140Z,99550.88
2023-03-10T22:02:59.281Z,99560.81
2023-03-10T22:05:27.436Z,99566.00
2023-03-10T22:07:56.995Z,99558.97
2023-03-10T22:10:25.124Z,99557.78
2023-03-10T22:12:53.203Z,99561.69
2023-03-10T22:15:23.237Z,99561.25
2023-03-10T22:17:51.901Z,99565.38
2023-03-10T22:20:22.254Z,99575.59
2023-03-10T22:22:50.634Z,99579.94
2023-03-10T22:25:21.433Z,99574.56
2023-03-10T22:27:51.662Z,99579.81
2023-03-10T22:30:20.398Z,99600.50
2023-03-10T22:32:49.264Z,99597.44
2023-03-10T22:35:18.002Z,99594.97
2023-03-10T22:37:46.161Z,99592.09
2023-03-10T22:40:20.857Z,99598.06
2023-03-10T22:42:48.965Z,99599.47
2023-03-10T22:45:21.060Z,99593.66
2023-03-10T22:47:50.201Z,99600.78
2023-03-10T22:50:22.369Z,99601.34
2023-03-10T22:52:50.339Z,99592.03
2023-03-10T22:55:25.079Z,99588.94
2023-03-10T22:57:53.476Z,99600.78
2023-03-10T23:00:23.126Z,99598.56
2023-03-10T23:02:52.335Z,99603.72
2023-03-10T23:05:21.051Z,99584.59
2023-03-10T23:07:49.252Z,99587.16
2023-03-10T23:10:21.531Z,99582.50
2023-03-10T23:12:49.590Z,99586.19
2023-03-10T23:15:25.288Z,99589.53
2023-03-10T23:17:54.476Z,99602.03
2023-03-10T23:20:26.972Z,99592.53
2023-03-10T23:22:56.160Z,99612.75
2023-03-10T23:25:28.770Z,99598.53
2023-03-10T23:27:57.336Z,99597.16
2023-03-10T23:30:25.361Z,99603.25
2023-03-10T23:32:53.876Z,99594.84
2023-03-10T23:35:24.395Z,99592.13
2023-03-10T23:37:55.423Z,99587.63
2023-03-10T23:40:27.284Z,99590.84
2023-03-10T23:42:55.394Z,99597.25
2023-03-10T23:45:25.548Z,99592.22
2023-03-10T23:47:55.573Z,99588.56
2023-03-10T23:50:25.989Z,99581.28
2023-03-10T23:52:54.583Z,99582.00
2023-03-10T23:55:26.725Z,99588.81
2023-03-10T23:57:55.082Z,99586.28
